createdAt,value
2019-04-21T00:00:55.441Z,0.00
2019-04-21T00:01:50.305Z,0.00
2019-04-21T00:03:47.733Z,0.00
2019-04-21T00:04:49.801Z,0.00
2019-04-21T00:06:57.221Z,0.00
2019-04-21T00:07:51.079Z,0.00
2019-04-21T00:09:53.753Z,0.00
2019-04-21T00:10:51.324Z,0.00
2019-04-21T00:12:37.600Z,0.00
2019-04-21T00:13:32.920Z,0.00
2019-04-21T00:15:20.535Z,0.00
2019-04-21T00:16:14.098Z,0.00
2019-04-21T00:18:06.902Z,0.00
2019-04-21T00:19:09.095Z,0.00
2019-04-21T00:20:58.604Z,0.00
2019-04-21T00:22:11.678Z,0.00
2019-04-21T00:24:06.129Z,0.00
2019-04-21T00:25:01.030Z,0.00
2019-04-21T00:26:57.391Z,0.00
2019-04-21T00:27:58.935Z,0.00
2019-04-21T00:29:56.261Z,0.00
2019-04-21T00:30:44.233Z,0.00
2019-04-21T00:32:39.033Z,0.00
2019-04-21T00:33:31.950Z,0.00
2019-04-21T00:35:24.562Z,0.00
2019-04-21T00:36:27.030Z,0.00
2019-04-21T00:38:34.592Z,0.00
2019-04-21T00:39:45.067Z,0.00
2019-04-21T00:41:26.320Z,0.00
2019-04-21T00:42:25.756Z,0.00
2019-04-21T00:44:13.161Z,0.00
2019-04-21T00:45:12.031Z,0.00
2019-04-21T00:47:03.083Z,0.00
2019-04-21T00:48:14.693Z,0.00
2019-04-21T00:50:05.234Z,0.00
2019-04-21T00:51:16.930Z,0.00
2019-04-21T00:54:06.958Z,0.00
2019-04-21T00:55:48.595Z,0.00
2019-04-21T00:56:56.189Z,0.00
2019-04-21T00:58:50.869Z,0.00
2019-04-21T00:59:47.888Z,0.00
2019-04-21T01:01:32.811Z,0.00
2019-04-21T01:02:43.223Z,0.00
2019-04-21T01:04:30.709Z,0.00
2019-04-21T01:05:26.951Z,0.00
2019-04-21T01:07:21.982Z,0.00
2019-04-21T01:08:19.959Z,0.00
2019-04-21T01:10:06.661Z,0.00
2019-04-21T01:11:15.622Z,0.00
2019-04-21T01:13:14.279Z,0.00
2019-04-21T01:14:07.072Z,0.00
2019-04-21T01:16:02.107Z,0.00
2019-04-21T01:16:57.373Z,0.00
2019-04-21T01:18:49.272Z,0.00
2019-04-21T01:19:46.888Z,0.00
2019-04-21T01:21:22.804Z,0.00
2019-04-21T01:22:22.664Z,0.00
2019-04-21T01:24:21.647Z,0.00
2019-04-21T01:25:22.625Z,0.00
2019-04-21T01:27:19.441Z,0.00
2019-04-21T01:28:25.470Z,0.00
2019-04-21T01:30:22.309Z,0.00
2019-04-21T01:31:17.024Z,0.00
2019-04-21T01:33:15.352Z,0.00
2019-04-21T01:34:14.825Z,0.00
2019-04-21T01:36:04.182Z,0.00
2019-04-21T01:37:04.669Z,0.00
2019-04-21T01:39:00.958Z,0.00
2019-04-21T01:40:06.523Z,0.00
2019-04-21T01:41:52.534Z,0.00
2019-04-21T01:42:52.942Z,0.00
2019-04-21T01:44:48.401Z,0.00
2019-04-21T01:45:47.229Z,0.00
2019-04-21T01:47:37.607Z,0.00
2019-04-21T01:48:36.083Z,0.00
2019-04-21T01:50:31.802Z,0.00
2019-04-21T01:51:28.398Z,0.00
2019-04-21T01:53:23.965Z,0.00
2019-04-21T01:54:23.459Z,0.00
2019-04-21T01:56:24.750Z,0.00
2019-04-21T01:57:22.720Z,0.00
2019-04-21T01:59:07.167Z,0.00
2019-04-21T02:00:10.409Z,0.00
2019-04-21T02:02:10.989Z,0.00
2019-04-21T02:03:31.611Z,0.00
2019-04-21T02:05:10.511Z,0.00
2019-04-21T02:06:15.617Z,0.00
2019-04-21T02:07:54.713Z,0.00
2019-04-21T02:09:02.145Z,0.00
2019-04-21T02:10:54.910Z,0.00
2019-04-21T02:11:55.165Z,0.00
2019-04-21T02:13:48.973Z,0.00
2019-04-21T02:14:51.542Z,0.00
2019-04-21T02:16:36.058Z,0.00
2019-04-21T02:17:34.174Z,0.00
2019-04-21T02:19:23.616Z,0.00
2019-04-21T02:20:19.395Z,0.00
2019-04-21T02:22:33.900Z,0.00
2019-04-21T02:23:34.585Z,0.00
2019-04-21T02:25:13.989Z,0.00
2019-04-21T02:26:16.369Z,0.00
2019-04-21T02:28:12.489Z,0.00
2019-04-21T02:29:17.095Z,0.00
2019-04-21T02:31:18.608Z,0.00
2019-04-21T02:32:11.758Z,0.00
2019-04-21T02:35:25.509Z,0.00
2019-04-21T02:37:13.238Z,0.00
2019-04-21T02:39:48.930Z,0.00
2019-04-21T02:42:45.923Z,0.00
2019-04-21T02:43:46.129Z,0.00
2019-04-21T02:45:38.208Z,0.00
2019-04-21T02:46:42.178Z,0.00
2019-04-21T02:48:32.918Z,0.00
2019-04-21T02:51:23.784Z,0.00
2019-04-21T02:52:31.694Z,0.00
2019-04-21T02:55:07.797Z,0.00
2019-04-21T02:57:08.935Z,0.00
2019-04-21T02:58:06.113Z,0.00
2019-04-21T03:00:55.526Z,0.00
2019-04-21T03:02:48.358Z,0.00
2019-04-21T03:05:46.856Z,0.00
2019-04-21T03:06:40.156Z,0.00
2019-04-21T03:08:42.996Z,0.00
2019-04-21T03:09:35.749Z,0.00
2019-04-21T03:11:25.170Z,0.00
2019-04-21T03:12:24.541Z,0.00
2019-04-21T03:14:28.290Z,0.00
2019-04-21T03:15:23.547Z,0.00
2019-04-21T03:17:18.293Z,0.00
2019-04-21T03:20:14.712Z,0.00
2019-04-21T03:21:07.147Z,0.00
2019-04-21T03:23:02.139Z,0.00
2019-04-21T03:23:59.711Z,0.00
2019-04-21T03:25:49.753Z,4.00
2019-04-21T03:26:59.116Z,0.00
2019-04-21T03:28:47.441Z,4.00
2019-04-21T03:29:46.126Z,0.00
2019-04-21T03:32:04.127Z,4.00
2019-04-21T03:33:09.586Z,4.00
2019-04-21T03:36:02.105Z,8.00
2019-04-21T03:37:36.986Z,8.00
2019-04-21T03:38:29.333Z,12.00
2019-04-21T03:40:16.698Z,16.00
2019-04-21T03:41:26.167Z,20.00
2019-04-21T03:43:14.757Z,24.00
2019-04-21T03:44:13.040Z,28.00
2019-04-21T03:45:58.843Z,36.00
2019-04-21T03:48:53.978Z,52.00
2019-04-21T03:50:04.795Z,56.00
2019-04-21T03:51:45.812Z,68.00
2019-04-21T03:54:41.464Z,92.00
2019-04-21T03:55:58.677Z,100.00
2019-04-21T03:57:50.493Z,120.00
2019-04-21T04:00:42.493Z,152.00
2019-04-21T04:01:21.977Z,164.00
2019-04-21T04:03:33.345Z,188.00
2019-04-21T04:06:13.379Z,232.00
2019-04-21T04:07:18.741Z,244.00
2019-04-21T04:10:14.120Z,296.00
2019-04-21T04:11:55.168Z,328.00
2019-04-21T04:12:57.630Z,348.00
2019-04-21T04:23:31.056Z,556.00
2019-04-21T04:24:36.384Z,572.00
2019-04-21T04:27:35.167Z,636.00
2019-04-21T04:29:12.274Z,672.00
2019-04-21T04:30:12.452Z,692.00
2019-04-21T04:32:00.734Z,732.00
2019-04-21T04:32:56.476Z,752.00
2019-04-21T04:35:14.474Z,788.00
2019-04-21T04:36:01.544Z,812.00
2019-04-21T04:38:03.756Z,848.00
2019-04-21T04:39:06.743Z,868.00
2019-04-21T04:40:41.442Z,908.00
2019-04-21T04:42:00.314Z,928.00
2019-04-21T04:44:46.583Z,984.00
2019-04-21T04:46:28.580Z,1020.00
2019-04-21T04:47:22.814Z,1040.00
2019-04-21T04:49:39.680Z,1076.00
2019-04-21T04:50:19.754Z,1092.00
2019-04-21T04:53:31.191Z,1144.00
2019-04-21T04:56:03.681Z,1196.00
2019-04-21T04:57:59.391Z,1232.00
2019-04-21T05:00:53.708Z,1280.00
2019-04-21T05:04:59.246Z,1352.00
2019-04-21T05:06:45.986Z,1380.00
2019-04-21T05:07:46.509Z,1400.00
2019-04-21T05:10:41.679Z,1452.00
2019-04-21T05:12:16.064Z,1480.00
2019-04-21T05:13:18.388Z,1496.00
2019-04-21T05:15:13.153Z,1528.00
2019-04-21T05:16:24.063Z,1544.00
2019-04-21T05:18:10.406Z,1576.00
2019-04-21T05:21:10.572Z,1624.00
2019-04-21T05:21:55.284Z,1640.00
2019-04-21T05:23:44.344Z,1676.00
2019-04-21T05:24:37.717Z,1696.00
2019-04-21T05:26:36.076Z,1776.00
2019-04-21T05:27:29.299Z,1812.00
2019-04-21T05:29:19.467Z,1880.00
2019-04-21T05:30:33.942Z,1904.00
2019-04-21T05:32:29.808Z,1972.00
2019-04-21T05:33:25.920Z,2004.00
2019-04-21T05:35:14.511Z,2076.00
2019-04-21T05:36:15.638Z,2116.00
2019-04-21T05:38:06.013Z,2220.00
2019-04-21T05:39:06.863Z,2292.00
2019-04-21T05:40:52.411Z,2512.00
2019-04-21T05:41:48.893Z,2732.00
2019-04-21T05:43:54.477Z,3524.00
2019-04-21T05:44:59.855Z,4112.00
2019-04-21T05:46:49.625Z,6216.00
2019-04-21T05:47:48.646Z,7640.00
2019-04-21T05:49:35.415Z,10660.00
2019-04-21T05:50:34.415Z,14208.00
2019-04-21T05:52:29.083Z,14656.00
2019-04-21T05:55:24.667Z,9184.00
2019-04-21T05:56:22.348Z,7572.00
2019-04-21T05:58:13.191Z,9604.00
2019-04-21T05:59:14.914Z,9448.00
2019-04-21T06:01:15.140Z,9204.00
2019-04-21T06:02:20.913Z,9232.00
2019-04-21T06:04:05.413Z,8432.00
2019-04-21T06:05:18.490Z,7424.00
2019-04-21T06:07:01.520Z,7016.00
2019-04-21T06:07:56.451Z,7956.00
2019-04-21T06:09:56.903Z,12660.00
2019-04-21T06:10:55.079Z,15424.00
2019-04-21T06:12:44.289Z,18048.00
2019-04-21T06:15:39.532Z,19136.00
2019-04-21T06:16:36.470Z,19168.00
2019-04-21T06:18:35.371Z,19168.00
2019-04-21T06:19:35.175Z,19200.00
2019-04-21T06:21:18.932Z,19456.00
2019-04-21T06:22:15.123Z,19424.00
2019-04-21T06:24:10.151Z,19776.00
2019-04-21T06:27:26.379Z,20000.00
2019-04-21T06:28:04.713Z,20160.00
2019-04-21T06:31:05.850Z,20640.00
2019-04-21T06:32:50.518Z,20384.00
2019-04-21T06:33:48.803Z,20384.00
2019-04-21T06:36:45.184Z,21280.00
2019-04-21T06:38:46.930Z,22048.00
2019-04-21T06:39:40.506Z,22304.00
2019-04-21T06:41:32.605Z,22592.00
2019-04-21T06:42:25.739Z,22720.00
2019-04-21T06:44:16.233Z,22208.00
2019-04-21T06:45:27.628Z,22176.00
2019-04-21T06:47:25.677Z,22432.00
2019-04-21T06:48:20.770Z,22656.00
2019-04-21T06:50:07.670Z,23104.00
2019-04-21T06:51:10.712Z,23456.00
2019-04-21T06:53:21.010Z,24128.00
2019-04-21T06:55:51.672Z,23584.00
2019-04-21T06:57:16.977Z,23968.00
2019-04-21T06:58:42.837Z,23744.00
2019-04-21T06:59:38.378Z,23840.00
2019-04-21T07:01:42.180Z,22848.00
2019-04-21T07:02:42.528Z,23200.00
2019-04-21T07:04:31.253Z,23136.00
2019-04-21T07:05:33.571Z,23488.00
2019-04-21T07:07:26.184Z,22592.00
2019-04-21T07:10:14.981Z,22464.00
2019-04-21T07:11:12.468Z,22592.00
2019-04-21T07:13:03.749Z,23456.00
2019-04-21T07:14:25.957Z,23520.00
2019-04-21T07:16:07.278Z,23744.00
2019-04-21T07:17:05.284Z,23424.00
2019-04-21T07:19:01.163Z,23392.00
2019-04-21T07:19:55.955Z,23744.00
2019-04-21T07:21:48.023Z,24672.00
2019-04-21T07:22:50.917Z,24992.00
2019-04-21T07:24:36.784Z,25248.00
2019-04-21T07:25:39.274Z,25568.00
2019-04-21T07:27:35.412Z,27040.00
2019-04-21T07:28:32.151Z,27392.00
2019-04-21T07:30:28.013Z,27552.00
2019-04-21T07:31:25.462Z,26592.00
2019-04-21T07:33:46.229Z,27520.00
2019-04-21T07:34:23.927Z,27648.00
2019-04-21T07:36:17.425Z,27680.00
2019-04-21T07:37:06.571Z,27872.00
2019-04-21T07:39:00.232Z,27616.00
2019-04-21T07:40:01.764Z,28064.00
2019-04-21T07:41:49.654Z,28544.00
2019-04-21T07:42:49.907Z,28704.00
2019-04-21T07:44:44.735Z,29376.00
2019-04-21T07:45:41.927Z,29792.00
2019-04-21T07:47:40.536Z,31360.00
2019-04-21T07:48:38.114Z,31424.00
2019-04-21T07:50:34.732Z,31808.00
2019-04-21T07:51:31.832Z,32704.00
2019-04-21T07:53:27.678Z,32064.00
2019-04-21T07:54:34.210Z,32192.00
2019-04-21T07:56:06.619Z,32800.00
2019-04-21T07:57:12.677Z,33024.00
2019-04-21T07:59:12.760Z,32544.00
2019-04-21T08:00:29.598Z,33120.00
2019-04-21T08:02:02.359Z,32544.00
2019-04-21T08:03:09.313Z,33024.00
2019-04-21T08:05:04.138Z,33184.00
2019-04-21T08:05:59.105Z,33024.00
2019-04-21T08:07:52.110Z,32832.00
2019-04-21T08:08:46.738Z,33344.00
2019-04-21T08:10:38.056Z,33088.00
2019-04-21T08:11:37.102Z,32640.00
2019-04-21T08:13:48.140Z,33120.00
2019-04-21T08:14:38.263Z,32480.00
2019-04-21T08:16:24.226Z,33120.00
2019-04-21T08:17:24.152Z,32832.00
2019-04-21T08:19:23.495Z,33088.00
2019-04-21T08:20:18.456Z,32928.00
2019-04-21T08:22:15.722Z,32768.00
2019-04-21T08:23:13.069Z,32896.00
2019-04-21T08:25:02.860Z,32352.00
2019-04-21T08:26:06.117Z,32384.00
2019-04-21T08:28:01.540Z,32448.00
2019-04-21T08:28:56.376Z,32352.00
2019-04-21T08:30:47.895Z,32256.00
2019-04-21T08:31:57.910Z,32224.00
2019-04-21T08:34:05.991Z,32032.00
2019-04-21T08:34:42.951Z,31936.00
2019-04-21T08:36:33.938Z,31776.00
2019-04-21T08:37:30.938Z,31584.00
2019-04-21T08:39:31.279Z,31296.00
2019-04-21T08:40:34.668Z,31360.00
2019-04-21T08:42:18.001Z,31200.00
2019-04-21T08:43:30.801Z,31040.00
2019-04-21T08:45:17.972Z,30848.00
2019-04-21T08:46:16.949Z,30720.00
2019-04-21T08:48:04.658Z,30496.00
2019-04-21T08:49:09.380Z,30400.00
2019-04-21T08:51:05.939Z,30240.00
2019-04-21T08:52:21.238Z,30016.00
2019-04-21T08:53:53.493Z,29920.00
2019-04-21T08:54:56.052Z,29952.00
2019-04-21T08:56:46.770Z,30016.00
2019-04-21T08:57:50.685Z,30048.00
2019-04-21T08:59:36.363Z,29984.00
2019-04-21T09:00:38.906Z,29888.00
2019-04-21T09:02:29.476Z,29312.00
2019-04-21T09:03:29.898Z,29088.00
2019-04-21T09:05:28.103Z,29120.00
2019-04-21T09:08:20.181Z,28512.00
2019-04-21T09:09:21.010Z,28256.00
2019-04-21T09:11:05.301Z,27936.00
2019-04-21T09:12:07.232Z,27616.00
2019-04-21T09:15:01.186Z,27072.00
2019-04-21T09:16:50.305Z,26624.00
2019-04-21T09:17:44.767Z,26432.00
2019-04-21T09:19:50.996Z,26144.00
2019-04-21T09:22:40.117Z,25632.00
2019-04-21T09:23:39.613Z,25440.00
2019-04-21T09:25:38.365Z,25152.00
2019-04-21T09:26:29.235Z,24928.00
2019-04-21T09:28:19.905Z,24672.00
2019-04-21T09:29:16.038Z,24416.00
2019-04-21T09:31:01.327Z,23872.00
2019-04-21T09:31:59.585Z,23872.00
2019-04-21T09:33:53.949Z,23488.00
2019-04-21T09:34:52.413Z,23360.00
2019-04-21T09:36:49.538Z,22976.00
2019-04-21T09:37:51.673Z,22848.00
2019-04-21T09:39:40.993Z,22496.00
2019-04-21T09:40:40.342Z,22368.00
2019-04-21T09:42:36.058Z,22048.00
2019-04-21T09:43:36.478Z,21856.00
2019-04-21T09:45:22.914Z,21440.00
2019-04-21T09:46:23.124Z,21216.00
2019-04-21T09:48:18.997Z,20736.00
2019-04-21T09:49:20.205Z,20544.00
2019-04-21T09:51:08.585Z,20128.00
2019-04-21T09:52:13.666Z,19872.00
2019-04-21T09:54:05.774Z,19520.00
2019-04-21T09:55:06.996Z,19232.00
2019-04-21T09:56:58.599Z,18912.00
2019-04-21T09:57:56.968Z,18656.00
2019-04-21T09:59:55.989Z,18176.00
2019-04-21T10:01:00.148Z,17888.00
2019-04-21T10:02:49.490Z,17536.00
2019-04-21T10:03:43.496Z,17312.00
2019-04-21T10:05:31.706Z,16896.00
2019-04-21T10:06:31.268Z,16736.00
2019-04-21T10:08:25.043Z,16224.00
2019-04-21T10:09:24.295Z,16000.00
2019-04-21T10:11:19.170Z,15264.00
2019-04-21T10:12:16.630Z,14912.00
2019-04-21T10:14:09.773Z,14204.00
2019-04-21T10:15:10.551Z,13788.00
2019-04-21T10:17:03.066Z,12904.00
2019-04-21T10:18:02.735Z,12352.00
2019-04-21T10:19:55.177Z,11620.00
2019-04-21T10:20:54.910Z,11488.00
2019-04-21T10:22:48.922Z,11156.00
2019-04-21T10:23:47.968Z,11032.00
2019-04-21T10:25:40.920Z,10756.00
2019-04-21T10:26:40.977Z,10568.00
2019-04-21T10:28:33.183Z,10172.00
2019-04-21T10:29:34.874Z,9724.00
2019-04-21T10:31:26.969Z,8180.00
2019-04-21T10:32:25.956Z,6316.00
2019-04-21T10:34:19.132Z,4704.00
2019-04-21T10:35:21.094Z,4532.00
2019-04-21T10:37:13.300Z,3320.00
2019-04-21T10:38:25.229Z,3052.00
2019-04-21T10:40:05.374Z,2956.00
2019-04-21T10:41:05.495Z,2920.00
2019-04-21T10:42:58.702Z,2872.00
2019-04-21T10:43:59.073Z,2852.00
2019-04-21T10:45:52.762Z,2820.00
2019-04-21T10:46:53.645Z,2788.00
2019-04-21T10:48:44.296Z,2724.00
2019-04-21T10:49:44.782Z,2700.00
2019-04-21T10:51:37.034Z,2648.00
2019-04-21T10:52:37.361Z,2628.00
2019-04-21T10:54:49.240Z,2596.00
2019-04-21T10:55:45.045Z,2584.00
2019-04-21T10:57:22.495Z,2552.00
2019-04-21T10:58:22.642Z,2536.00
2019-04-21T11:00:16.030Z,2512.00
2019-04-21T11:01:15.172Z,2504.00
2019-04-21T11:03:08.788Z,2484.00
2019-04-21T11:04:20.007Z,2472.00
2019-04-21T11:06:01.049Z,2452.00
2019-04-21T11:07:06.681Z,2440.00
2019-04-21T11:08:55.581Z,2432.00
2019-04-21T11:09:53.963Z,2424.00
2019-04-21T11:11:48.195Z,2420.00
2019-04-21T11:12:47.573Z,2416.00
2019-04-21T11:14:38.999Z,2400.00
2019-04-21T11:15:39.185Z,2388.00
2019-04-21T11:17:32.291Z,2380.00
2019-04-21T11:18:31.748Z,2376.00
2019-04-21T11:20:24.742Z,2364.00
2019-04-21T11:21:24.923Z,2348.00
2019-04-21T11:23:19.566Z,2328.00
2019-04-21T11:24:18.135Z,2320.00
2019-04-21T11:26:10.079Z,2308.00
2019-04-21T11:27:10.930Z,2300.00
2019-04-21T11:29:05.097Z,2284.00
2019-04-21T11:30:03.683Z,2280.00
2019-04-21T11:31:56.938Z,2268.00
2019-04-21T11:32:57.165Z,2264.00
2019-04-21T11:34:49.411Z,2244.00
2019-04-21T11:35:49.304Z,2240.00
2019-04-21T11:37:42.211Z,2236.00
2019-04-21T11:39:00.845Z,2236.00
2019-04-21T11:40:36.031Z,2228.00
2019-04-21T11:41:35.904Z,2224.00
2019-04-21T11:43:27.541Z,2216.00
2019-04-21T11:44:28.947Z,2212.00
2019-04-21T11:46:20.517Z,2200.00
2019-04-21T11:47:20.513Z,2200.00
2019-04-21T11:49:13.075Z,2196.00
2019-04-21T11:50:13.043Z,2192.00
2019-04-21T11:52:07.031Z,2188.00
2019-04-21T11:53:07.018Z,2188.00
2019-04-21T11:54:58.854Z,2180.00
2019-04-21T11:55:58.867Z,2180.00
2019-04-21T11:57:51.761Z,2180.00
2019-04-21T11:58:51.906Z,2176.00
2019-04-21T12:00:45.306Z,2176.00
2019-04-21T12:01:44.003Z,2176.00
2019-04-21T12:03:37.766Z,2176.00
2019-04-21T12:04:37.177Z,2176.00
2019-04-21T12:06:37.179Z,2168.00
2019-04-21T12:07:29.761Z,2172.00
2019-04-21T12:09:23.123Z,2160.00
2019-04-21T12:10:23.683Z,2164.00
2019-04-21T12:12:15.418Z,2156.00
2019-04-21T12:13:16.245Z,2156.00
2019-04-21T12:15:08.192Z,2148.00
2019-04-21T12:16:07.992Z,2144.00
2019-04-21T12:18:01.743Z,2140.00
2019-04-21T12:19:00.978Z,2144.00
2019-04-21T12:20:53.804Z,2140.00
2019-04-21T12:22:04.993Z,2140.00
2019-04-21T12:23:46.379Z,2136.00
2019-04-21T12:24:47.085Z,2136.00
2019-04-21T12:26:40.161Z,2140.00
2019-04-21T12:27:40.080Z,2136.00
2019-04-21T12:29:31.795Z,2136.00
2019-04-21T12:30:31.744Z,2136.00
2019-04-21T12:32:24.613Z,2132.00
2019-04-21T12:33:24.462Z,2136.00
2019-04-21T12:35:17.705Z,2132.00
2019-04-21T12:36:17.886Z,2136.00
2019-04-21T12:38:10.967Z,2132.00
2019-04-21T12:39:10.719Z,2128.00
2019-04-21T12:41:02.763Z,2128.00
2019-04-21T12:42:02.709Z,2128.00
2019-04-21T12:43:56.857Z,2128.00
2019-04-21T12:44:57.239Z,2124.00
2019-04-21T12:46:49.541Z,2132.00
2019-04-21T12:47:50.249Z,2128.00
2019-04-21T12:49:41.438Z,2132.00
2019-04-21T12:50:41.724Z,2128.00
2019-04-21T12:52:33.860Z,2128.00
2019-04-21T12:53:34.073Z,2124.00
2019-04-21T12:55:31.887Z,2132.00
2019-04-21T12:56:27.542Z,2128.00
2019-04-21T12:58:19.469Z,2120.00
2019-04-21T12:59:19.379Z,2116.00
2019-04-21T13:01:12.557Z,2116.00
2019-04-21T13:02:13.625Z,2116.00
2019-04-21T13:04:05.904Z,2112.00
2019-04-21T13:05:05.065Z,2116.00
2019-04-21T13:06:59.376Z,2116.00
2019-04-21T13:07:57.798Z,2112.00
2019-04-21T13:09:50.618Z,2116.00
2019-04-21T13:10:51.874Z,2120.00
2019-04-21T13:12:43.889Z,2116.00
2019-04-21T13:13:43.882Z,2116.00
2019-04-21T13:15:37.525Z,2108.00
2019-04-21T13:16:37.174Z,2112.00
2019-04-21T13:18:29.166Z,2108.00
2019-04-21T13:19:29.391Z,2096.00
2019-04-21T13:21:22.443Z,2112.00
2019-04-21T13:22:21.744Z,2104.00
2019-04-21T13:24:15.824Z,2104.00
2019-04-21T13:25:16.037Z,2104.00
2019-04-21T13:27:08.955Z,2108.00
2019-04-21T13:28:07.293Z,2112.00
2019-04-21T13:30:00.208Z,2116.00
2019-04-21T13:31:00.229Z,2108.00
2019-04-21T13:32:53.406Z,2108.00
2019-04-21T13:33:52.814Z,2104.00
2019-04-21T13:35:46.778Z,2096.00
2019-04-21T13:36:45.694Z,2104.00
2019-04-21T13:38:45.920Z,2096.00
2019-04-21T13:40:01.808Z,2100.00
2019-04-21T13:41:42.973Z,2096.00
2019-04-21T13:42:39.386Z,2088.00
2019-04-21T13:44:24.111Z,2100.00
2019-04-21T13:45:24.099Z,2092.00
2019-04-21T13:47:17.037Z,2096.00
2019-04-21T13:48:16.873Z,2072.00
2019-04-21T13:50:11.071Z,2008.00
2019-04-21T13:51:09.483Z,2012.00
2019-04-21T13:53:02.804Z,2088.00
2019-04-21T13:54:02.241Z,2088.00
2019-04-21T13:55:56.439Z,2104.00
2019-04-21T13:56:56.428Z,2088.00
2019-04-21T13:58:48.357Z,2096.00
2019-04-21T13:59:49.430Z,2104.00
2019-04-21T14:01:41.404Z,2108.00
2019-04-21T14:02:42.546Z,2108.00
2019-04-21T14:04:33.691Z,2096.00
2019-04-21T14:05:33.239Z,2100.00
2019-04-21T14:07:26.212Z,2100.00
2019-04-21T14:08:27.352Z,2096.00
2019-04-21T14:10:19.862Z,2100.00
2019-04-21T14:11:19.762Z,2100.00
2019-04-21T14:13:12.146Z,2104.00
2019-04-21T14:14:12.420Z,2104.00
2019-04-21T14:16:04.319Z,2096.00
2019-04-21T14:17:05.523Z,2100.00
2019-04-21T14:18:57.236Z,2104.00
2019-04-21T14:19:57.288Z,2104.00
2019-04-21T14:21:52.687Z,2116.00
2019-04-21T14:22:49.748Z,2120.00
2019-04-21T14:24:43.788Z,2116.00
2019-04-21T14:25:43.743Z,2112.00
2019-04-21T14:27:36.359Z,2108.00
2019-04-21T14:28:36.645Z,2104.00
2019-04-21T14:30:28.437Z,2108.00
2019-04-21T14:31:28.413Z,2092.00
2019-04-21T14:33:23.488Z,2072.00
2019-04-21T14:34:21.836Z,2072.00
2019-04-21T14:36:14.814Z,2076.00
2019-04-21T14:37:14.747Z,2080.00
2019-04-21T14:39:06.512Z,2080.00
2019-04-21T14:40:09.060Z,2060.00
2019-04-21T14:42:00.171Z,2036.00
2019-04-21T14:43:00.194Z,2056.00
2019-04-21T14:44:51.764Z,2056.00
2019-04-21T14:45:52.776Z,2044.00
2019-04-21T14:47:44.532Z,2064.00
2019-04-21T14:48:45.389Z,2064.00
2019-04-21T14:50:37.205Z,2044.00
2019-04-21T14:51:37.151Z,2032.00
2019-04-21T14:53:30.006Z,2044.00
2019-04-21T14:54:30.957Z,2032.00
2019-04-21T14:56:22.983Z,2032.00
2019-04-21T14:57:23.088Z,2024.00
2019-04-21T14:59:15.620Z,2024.00
2019-04-21T15:00:15.602Z,2020.00
2019-04-21T15:02:09.753Z,2016.00
2019-04-21T15:03:09.604Z,2008.00
2019-04-21T15:05:02.112Z,1996.00
2019-04-21T15:06:01.236Z,2000.00
2019-04-21T15:07:55.149Z,1996.00
2019-04-21T15:08:55.413Z,2004.00
2019-04-21T15:10:47.209Z,1968.00
2019-04-21T15:11:47.705Z,1924.00
2019-04-21T15:13:39.790Z,1952.00
2019-04-21T15:14:40.256Z,1944.00
2019-04-21T15:16:33.230Z,1944.00
2019-04-21T15:17:33.649Z,1948.00
2019-04-21T15:19:26.511Z,1840.00
2019-04-21T15:20:25.722Z,1860.00
2019-04-21T15:22:18.546Z,1908.00
2019-04-21T15:23:18.031Z,1908.00
2019-04-21T15:25:11.969Z,1900.00
2019-04-21T15:26:10.551Z,1892.00
2019-04-21T15:28:03.601Z,1872.00
2019-04-21T15:29:04.597Z,1868.00
2019-04-21T15:30:56.670Z,1856.00
2019-04-21T15:31:56.840Z,1844.00
2019-04-21T15:33:49.569Z,1828.00
2019-04-21T15:34:49.903Z,1828.00
2019-04-21T15:36:42.012Z,1812.00
2019-04-21T15:37:42.060Z,1796.00
2019-04-21T15:39:34.645Z,1780.00
2019-04-21T15:40:41.880Z,1764.00
2019-04-21T15:42:28.381Z,1744.00
2019-04-21T15:43:28.505Z,1740.00
2019-04-21T15:45:21.022Z,1744.00
2019-04-21T15:46:20.566Z,1728.00
2019-04-21T15:48:13.847Z,1724.00
2019-04-21T15:49:13.320Z,1712.00
2019-04-21T15:51:08.454Z,1700.00
2019-04-21T15:52:05.389Z,1692.00
2019-04-21T15:53:58.234Z,1688.00
2019-04-21T15:54:58.968Z,1680.00
2019-04-21T15:56:51.376Z,1664.00
2019-04-21T15:57:52.203Z,1644.00
2019-04-21T15:59:44.317Z,1612.00
2019-04-21T16:00:44.688Z,1604.00
2019-04-21T16:02:36.854Z,1580.00
2019-04-21T16:03:36.576Z,1580.00
2019-04-21T16:05:29.152Z,1576.00
2019-04-21T16:06:29.670Z,1572.00
2019-04-21T16:08:22.051Z,1552.00
2019-04-21T16:09:25.170Z,1552.00
2019-04-21T16:11:15.768Z,1556.00
2019-04-21T16:12:15.892Z,1548.00
2019-04-21T16:14:08.061Z,1540.00
2019-04-21T16:15:08.474Z,1536.00
2019-04-21T16:17:01.221Z,1512.00
2019-04-21T16:18:01.492Z,1508.00
2019-04-21T16:19:54.008Z,1496.00
2019-04-21T16:20:53.709Z,1488.00
2019-04-21T16:22:46.471Z,1472.00
2019-04-21T16:23:46.630Z,1464.00
2019-04-21T16:25:38.986Z,1444.00
2019-04-21T16:26:38.504Z,1432.00
2019-04-21T16:28:31.235Z,1412.00
2019-04-21T16:29:31.304Z,1396.00
2019-04-21T16:31:24.726Z,1384.00
2019-04-21T16:32:24.023Z,1376.00
2019-04-21T16:34:17.772Z,1364.00
2019-04-21T16:35:17.094Z,1352.00
2019-04-21T16:37:09.771Z,1332.00
2019-04-21T16:38:09.071Z,1320.00
2019-04-21T16:40:03.231Z,1280.00
2019-04-21T16:41:05.495Z,1268.00
2019-04-21T16:42:54.567Z,1240.00
2019-04-21T16:43:55.425Z,1216.00
2019-04-21T16:45:48.702Z,1196.00
2019-04-21T16:46:47.589Z,1184.00
2019-04-21T16:48:39.995Z,1156.00
2019-04-21T16:49:40.109Z,1148.00
2019-04-21T16:51:33.895Z,1120.00
2019-04-21T16:52:34.117Z,1104.00
2019-04-21T16:54:26.272Z,1076.00
2019-04-21T16:55:26.493Z,1060.00
2019-04-21T16:57:19.622Z,1024.00
2019-04-21T16:58:23.101Z,1008.00
2019-04-21T17:00:10.843Z,988.00
2019-04-21T17:01:15.925Z,976.00
2019-04-21T17:03:04.319Z,952.00
2019-04-21T17:04:04.599Z,932.00
2019-04-21T17:05:56.316Z,912.00
2019-04-21T17:06:56.321Z,904.00
2019-04-21T17:08:50.462Z,876.00
2019-04-21T17:09:50.535Z,860.00
2019-04-21T17:11:44.647Z,832.00
2019-04-21T17:12:43.250Z,816.00
2019-04-21T17:14:51.177Z,784.00
2019-04-21T17:15:51.754Z,776.00
2019-04-21T17:17:50.018Z,752.00
2019-04-21T17:18:44.883Z,740.00
2019-04-21T17:20:34.166Z,720.00
2019-04-21T17:21:21.554Z,704.00
2019-04-21T17:23:13.461Z,696.00
2019-04-21T17:24:14.482Z,680.00
2019-04-21T17:26:05.918Z,660.00
2019-04-21T17:27:07.002Z,648.00
2019-04-21T17:28:58.814Z,620.00
2019-04-21T17:29:59.009Z,608.00
2019-04-21T17:31:51.324Z,588.00
2019-04-21T17:32:51.939Z,576.00
2019-04-21T17:34:44.028Z,552.00
2019-04-21T17:35:44.909Z,540.00
2019-04-21T17:37:38.230Z,520.00
2019-04-21T17:38:36.673Z,508.00
2019-04-21T17:40:29.698Z,484.00
2019-04-21T17:41:37.696Z,472.00
2019-04-21T17:43:23.625Z,444.00
2019-04-21T17:44:23.390Z,432.00
2019-04-21T17:46:23.074Z,408.00
2019-04-21T17:47:22.478Z,396.00
2019-04-21T17:49:08.629Z,368.00
2019-04-21T17:50:07.867Z,360.00
2019-04-21T17:52:03.954Z,336.00
2019-04-21T17:53:06.332Z,324.00
2019-04-21T17:54:59.408Z,300.00
2019-04-21T17:56:15.233Z,284.00
2019-04-21T17:58:03.152Z,264.00
2019-04-21T17:59:07.261Z,248.00
2019-04-21T18:01:20.919Z,228.00
2019-04-21T18:02:02.425Z,216.00
2019-04-21T18:03:58.993Z,192.00
2019-04-21T18:04:58.473Z,184.00
2019-04-21T18:06:39.353Z,160.00
2019-04-21T18:07:45.378Z,152.00
2019-04-21T18:09:47.048Z,132.00
2019-04-21T18:10:30.641Z,124.00
2019-04-21T18:12:26.607Z,108.00
2019-04-21T18:13:12.782Z,96.00
2019-04-21T18:15:18.175Z,80.00
2019-04-21T18:16:13.346Z,76.00
2019-04-21T18:17:54.711Z,60.00
2019-04-21T18:18:55.123Z,56.00
2019-04-21T18:20:47.964Z,44.00
2019-04-21T18:21:54.118Z,40.00
2019-04-21T18:23:50.636Z,32.00
2019-04-21T18:24:48.927Z,28.00
2019-04-21T18:26:40.678Z,20.00
2019-04-21T18:27:32.721Z,20.00
2019-04-21T18:29:25.622Z,12.00
2019-04-21T18:30:26.523Z,12.00
2019-04-21T18:32:27.635Z,8.00
2019-04-21T18:33:27.093Z,8.00
2019-04-21T18:35:13.517Z,8.00
2019-04-21T18:36:15.825Z,4.00
2019-04-21T18:38:13.278Z,4.00
2019-04-21T18:39:19.774Z,4.00